createdAt,value
2018-04-17T00:00:28.389Z,83.36
2018-04-17T00:02:55.939Z,83.93
2018-04-17T00:05:23.413Z,82.58
2018-04-17T00:07:50.933Z,83.81
2018-04-17T00:10:18.410Z,82.81
2018-04-17T00:12:45.905Z,83.17
2018-04-17T00:15:13.417Z,83.13
2018-04-17T00:17:40.893Z,83.60
2018-04-17T00:20:08.400Z,83.00
2018-04-17T00:22:35.881Z,83.26
2018-04-17T00:25:03.365Z,83.47
2018-04-17T00:27:30.867Z,83.74
2018-04-17T00:29:58.344Z,82.70
2018-04-17T00:32:25.895Z,84.06
2018-04-17T00:34:53.382Z,84.72
2018-04-17T00:37:20.865Z,84.32
2018-04-17T00:39:48.361Z,84.00
2018-04-17T00:42:15.844Z,84.77
2018-04-17T00:44:43.387Z,84.33
2018-04-17T00:47:10.861Z,83.37
2018-04-17T00:49:38.352Z,82.52
2018-04-17T00:52:05.857Z,83.27
2018-04-17T00:54:33.565Z,83.55
2018-04-17T00:57:01.082Z,84.51
2018-04-17T00:59:28.558Z,83.71
2018-04-17T01:01:56.049Z,84.21
2018-04-17T01:04:23.588Z,83.47
2018-04-17T01:06:51.076Z,83.88
2018-04-17T01:09:18.733Z,83.92
2018-04-17T01:11:46.217Z,83.57
2018-04-17T01:14:13.789Z,84.16
2018-04-17T01:16:41.293Z,83.74
2018-04-17T01:19:08.772Z,85.01
2018-04-17T01:21:36.529Z,85.84
2018-04-17T01:24:04.313Z,84.62
2018-04-17T01:26:31.855Z,84.48
2018-04-17T01:28:59.369Z,83.39
2018-04-17T01:31:26.853Z,83.69
2018-04-17T01:33:54.381Z,84.97
2018-04-17T01:36:21.855Z,84.29
2018-04-17T01:38:49.333Z,85.36
2018-04-17T01:41:16.837Z,84.60
2018-04-17T01:43:44.316Z,84.18
2018-04-17T01:46:11.836Z,84.86
2018-04-17T01:48:39.335Z,85.65
2018-04-17T01:51:06.833Z,85.97
2018-04-17T01:53:34.341Z,84.99
2018-04-17T01:56:01.821Z,85.85
2018-04-17T01:58:29.442Z,86.38
2018-04-17T02:00:56.973Z,84.55
2018-04-17T02:03:24.449Z,84.34
2018-04-17T02:05:51.971Z,84.73
2018-04-17T02:08:19.463Z,83.95
2018-04-17T02:10:47.230Z,84.84
2018-04-17T02:13:14.733Z,84.96
2018-04-17T02:15:42.209Z,86.01
2018-04-17T02:18:09.709Z,85.42
2018-04-17T02:20:37.193Z,85.35
2018-04-17T02:23:04.970Z,86.41
2018-04-17T02:25:32.449Z,85.53
2018-04-17T02:27:59.942Z,85.31
2018-04-17T02:30:27.445Z,85.39
2018-04-17T02:32:54.955Z,84.77
2018-04-17T02:35:22.485Z,85.88
2018-04-17T02:37:49.966Z,85.98
2018-04-17T02:40:17.461Z,85.10
2018-04-17T02:42:44.994Z,85.70
2018-04-17T02:45:12.493Z,85.71
2018-04-17T02:47:40.287Z,84.87
2018-04-17T02:50:07.762Z,84.74
2018-04-17T02:52:35.261Z,84.84
2018-04-17T02:55:02.761Z,85.88
2018-04-17T02:57:30.261Z,85.92
2018-04-17T02:59:57.961Z,85.59
2018-04-17T03:02:25.439Z,86.58
2018-04-17T03:04:52.957Z,86.31
2018-04-17T03:07:20.477Z,85.83
2018-04-17T03:09:47.956Z,85.46
2018-04-17T03:12:15.711Z,85.21
2018-04-17T03:14:43.185Z,84.65
2018-04-17T03:17:10.681Z,85.17
2018-04-17T03:19:38.189Z,86.19
2018-04-17T03:22:05.665Z,86.13
2018-04-17T03:24:33.367Z,85.96
2018-04-17T03:27:00.844Z,85.80
2018-04-17T03:29:28.325Z,86.68
2018-04-17T03:31:55.824Z,85.69
2018-04-17T03:34:23.309Z,85.02
2018-04-17T03:36:50.821Z,85.19
2018-04-17T03:39:18.309Z,86.04
2018-04-17T03:41:45.785Z,86.16
2018-04-17T03:44:13.282Z,85.69
2018-04-17T03:46:40.777Z,86.15
2018-04-17T03:49:08.550Z,87.01
2018-04-17T03:51:36.057Z,87.06
2018-04-17T03:54:03.533Z,87.09
2018-04-17T03:56:31.038Z,86.32
2018-04-17T03:58:58.521Z,86.73
2018-04-17T04:01:26.196Z,86.88
2018-04-17T04:03:53.675Z,85.77
2018-04-17T04:06:21.157Z,86.15
2018-04-17T04:08:48.662Z,85.95
2018-04-17T04:11:16.171Z,86.07
2018-04-17T04:13:43.957Z,85.96
2018-04-17T04:16:23.173Z,85.76
2018-04-17T04:19:02.686Z,86.61
2018-04-17T04:21:42.017Z,86.65
2018-04-17T04:24:21.557Z,87.23
2018-04-17T04:26:49.047Z,86.83
2018-04-17T04:29:17.514Z,86.69
2018-04-17T04:31:45.009Z,86.67
2018-04-17T04:34:12.488Z,86.43
2018-04-17T04:36:40.237Z,87.14
2018-04-17T04:39:07.734Z,87.11
2018-04-17T04:41:35.222Z,86.13
2018-04-17T04:44:02.721Z,86.88
2018-04-17T04:46:30.202Z,86.89
2018-04-17T04:48:58.098Z,86.91
2018-04-17T04:51:25.615Z,86.32
2018-04-17T04:53:53.104Z,86.82
2018-04-17T04:56:20.605Z,87.86
2018-04-17T04:58:48.118Z,87.44
2018-04-17T05:01:15.957Z,87.39
2018-04-17T05:03:43.437Z,87.68
2018-04-17T05:06:10.922Z,86.97
2018-04-17T05:08:38.437Z,86.96
2018-04-17T05:11:05.908Z,86.76
2018-04-17T05:13:33.613Z,86.66
2018-04-17T05:16:01.089Z,86.19
2018-04-17T05:18:28.596Z,84.72
2018-04-17T05:20:56.101Z,82.90
2018-04-17T05:23:23.612Z,81.28
2018-04-17T05:25:51.127Z,80.86
2018-04-17T05:28:18.613Z,79.63
2018-04-17T05:30:46.087Z,78.35
2018-04-17T05:33:13.597Z,77.39
2018-04-17T05:35:41.083Z,77.33
2018-04-17T05:38:08.825Z,77.78
2018-04-17T05:40:36.309Z,78.17
2018-04-17T05:43:03.798Z,78.90
2018-04-17T05:45:31.313Z,78.65
2018-04-17T05:47:58.799Z,77.77
2018-04-17T05:50:26.477Z,77.51
2018-04-17T05:52:53.953Z,76.58
2018-04-17T05:55:21.435Z,76.42
2018-04-17T05:57:48.942Z,75.89
2018-04-17T06:00:16.425Z,76.72
2018-04-17T06:02:44.349Z,76.27
2018-04-17T06:05:11.853Z,77.10
2018-04-17T06:07:39.334Z,77.37
2018-04-17T06:10:06.869Z,78.42
2018-04-17T06:12:34.451Z,78.42
2018-04-17T06:15:02.031Z,77.85
2018-04-17T06:17:29.517Z,78.47
2018-04-17T06:19:57.025Z,78.84
2018-04-17T06:22:24.552Z,78.07
2018-04-17T06:24:52.029Z,77.58
2018-04-17T06:27:19.748Z,77.47
2018-04-17T06:29:47.242Z,77.40
2018-04-17T06:32:14.737Z,75.18
2018-04-17T06:34:42.241Z,74.92
2018-04-17T06:37:09.722Z,76.32
2018-04-17T06:39:37.253Z,76.01
2018-04-17T06:42:04.811Z,73.86
2018-04-17T06:44:32.305Z,76.21
2018-04-17T06:46:59.816Z,73.60
2018-04-17T06:49:27.313Z,75.90
2018-04-17T06:51:54.984Z,75.82
2018-04-17T06:54:22.469Z,74.17
2018-04-17T06:56:49.977Z,75.63
2018-04-17T06:59:17.489Z,75.43
2018-04-17T07:01:44.965Z,73.53
2018-04-17T07:04:12.616Z,75.56
2018-04-17T07:06:40.108Z,74.63
2018-04-17T07:09:07.595Z,74.69
2018-04-17T07:11:35.126Z,75.85
2018-04-17T07:14:02.617Z,75.36
2018-04-17T07:16:30.269Z,75.00
2018-04-17T07:18:57.745Z,74.06
2018-04-17T07:21:25.234Z,74.04
2018-04-17T07:23:52.741Z,74.11
2018-04-17T07:26:20.229Z,74.33
2018-04-17T07:28:47.777Z,72.29
2018-04-17T07:31:15.253Z,74.44
2018-04-17T07:33:42.746Z,74.40
2018-04-17T07:36:10.249Z,72.82
2018-04-17T07:38:37.726Z,73.58
2018-04-17T07:41:05.241Z,72.73
2018-04-17T07:43:32.726Z,72.21
2018-04-17T07:46:00.217Z,71.27
2018-04-17T07:48:39.721Z,69.29
2018-04-17T07:51:07.209Z,68.86
2018-04-17T07:53:34.792Z,70.71
2018-04-17T07:56:02.289Z,70.54
2018-04-17T07:58:29.773Z,68.78
2018-04-17T08:00:57.281Z,67.89
2018-04-17T08:03:24.777Z,68.85
2018-04-17T08:05:52.462Z,68.29
2018-04-17T08:08:19.967Z,67.23
2018-04-17T08:10:47.453Z,65.97
2018-04-17T08:13:14.961Z,64.81
2018-04-17T08:15:42.449Z,65.31
2018-04-17T08:18:10.118Z,65.74
2018-04-17T08:20:37.601Z,63.65
2018-04-17T08:23:05.106Z,63.93
2018-04-17T08:25:32.622Z,63.98
2018-04-17T08:28:00.280Z,63.03
2018-04-17T08:30:27.813Z,62.47
2018-04-17T08:32:55.297Z,63.67
2018-04-17T08:35:22.789Z,62.15
2018-04-17T08:37:50.309Z,60.41
2018-04-17T08:40:17.809Z,61.19
2018-04-17T08:42:45.387Z,60.74
2018-04-17T08:45:12.847Z,62.14
2018-04-17T08:47:40.338Z,61.09
2018-04-17T08:50:07.881Z,60.82
2018-04-17T08:52:35.379Z,60.34
2018-04-17T08:55:03.193Z,59.65
2018-04-17T08:57:30.821Z,60.99
2018-04-17T08:59:58.309Z,60.93
2018-04-17T09:02:25.852Z,59.44
2018-04-17T09:04:53.469Z,59.40
2018-04-17T09:07:21.161Z,60.24
2018-04-17T09:09:48.653Z,59.76
2018-04-17T09:12:16.149Z,60.44
2018-04-17T09:14:43.674Z,59.67
2018-04-17T09:17:11.166Z,59.50
2018-04-17T09:19:38.714Z,58.40
2018-04-17T09:22:06.215Z,59.67
2018-04-17T09:24:33.727Z,59.84
2018-04-17T09:27:01.249Z,58.93
2018-04-17T09:29:28.737Z,58.19
2018-04-17T09:31:56.364Z,58.03
2018-04-17T09:34:23.849Z,57.70
2018-04-17T09:36:51.337Z,56.25
2018-04-17T09:39:18.871Z,56.00
2018-04-17T09:41:46.357Z,54.16
2018-04-17T09:44:14.018Z,54.67
2018-04-17T09:46:41.608Z,54.47
2018-04-17T09:49:09.098Z,53.83
2018-04-17T09:51:36.632Z,53.64
2018-04-17T09:54:04.122Z,53.00
2018-04-17T09:56:31.648Z,53.14
2018-04-17T09:58:59.178Z,53.87
2018-04-17T10:01:26.665Z,52.61
2018-04-17T10:03:54.188Z,53.70
2018-04-17T10:06:21.697Z,53.70
2018-04-17T10:08:49.488Z,50.97
2018-04-17T10:11:16.929Z,50.80
2018-04-17T10:13:44.421Z,50.25
2018-04-17T10:16:11.965Z,50.50
2018-04-17T10:18:39.453Z,49.57
2018-04-17T10:21:07.177Z,48.33
2018-04-17T10:23:34.677Z,47.67
2018-04-17T10:26:02.168Z,46.56
2018-04-17T10:28:29.681Z,45.13
2018-04-17T10:30:57.180Z,43.66
2018-04-17T10:33:24.742Z,39.52
2018-04-17T10:35:52.232Z,38.24
2018-04-17T10:38:19.713Z,40.79
2018-04-17T10:40:47.217Z,42.88
2018-04-17T10:43:14.701Z,42.20
2018-04-17T10:45:42.313Z,42.39
2018-04-17T10:48:09.793Z,43.90
2018-04-17T10:50:37.273Z,43.27
2018-04-17T10:53:04.780Z,43.45
2018-04-17T10:55:32.285Z,43.22
2018-04-17T10:58:00.085Z,43.61
2018-04-17T11:00:27.568Z,43.48
2018-04-17T11:02:55.059Z,43.76
2018-04-17T11:05:22.604Z,43.41
2018-04-17T11:07:50.093Z,43.02
2018-04-17T11:10:17.793Z,43.80
2018-04-17T11:12:45.289Z,43.01
2018-04-17T11:15:12.772Z,42.14
2018-04-17T11:17:40.272Z,42.51
2018-04-17T11:20:07.769Z,43.07
2018-04-17T11:22:35.541Z,43.07
2018-04-17T11:25:03.048Z,43.03
2018-04-17T11:27:30.534Z,43.22
2018-04-17T11:29:58.057Z,43.35
2018-04-17T11:32:25.541Z,42.39
2018-04-17T11:34:53.369Z,42.80
2018-04-17T11:37:20.851Z,41.81
2018-04-17T11:39:48.338Z,40.78
2018-04-17T11:42:15.842Z,40.72
2018-04-17T11:44:43.339Z,41.35
2018-04-17T11:47:10.953Z,39.97
2018-04-17T11:49:38.452Z,41.27
2018-04-17T11:52:05.942Z,40.68
2018-04-17T11:54:33.481Z,41.88
2018-04-17T11:57:00.969Z,41.70
2018-04-17T11:59:28.583Z,42.03
2018-04-17T12:01:56.073Z,42.18
2018-04-17T12:04:23.602Z,42.92
2018-04-17T12:06:51.113Z,43.23
2018-04-17T12:09:18.610Z,43.19
2018-04-17T12:11:46.377Z,43.46
2018-04-17T12:14:13.860Z,43.10
2018-04-17T12:16:41.353Z,43.58
2018-04-17T12:19:08.861Z,43.93
2018-04-17T12:21:36.338Z,43.74
2018-04-17T12:24:04.129Z,39.70
2018-04-17T12:26:31.632Z,36.27
2018-04-17T12:28:59.117Z,36.24
2018-04-17T12:31:26.621Z,37.14
2018-04-17T12:33:54.136Z,36.72
2018-04-17T12:36:22.089Z,36.90
2018-04-17T12:38:49.578Z,36.18
2018-04-17T12:41:17.069Z,36.73
2018-04-17T12:43:44.581Z,36.08
2018-04-17T12:46:12.062Z,37.36
2018-04-17T12:48:39.589Z,34.82
2018-04-17T12:51:07.081Z,35.17
2018-04-17T12:53:34.561Z,34.73
2018-04-17T12:56:02.082Z,35.95
2018-04-17T12:58:29.577Z,36.19
2018-04-17T13:00:57.411Z,36.58
2018-04-17T13:03:24.904Z,36.54
2018-04-17T13:05:52.385Z,36.07
2018-04-17T13:08:19.898Z,35.89
2018-04-17T13:10:47.378Z,35.46
2018-04-17T13:13:15.086Z,34.78
2018-04-17T13:15:42.631Z,34.34
2018-04-17T13:18:10.077Z,35.04
2018-04-17T13:20:37.619Z,34.54
2018-04-17T13:23:05.106Z,35.01
2018-04-17T13:25:32.813Z,34.75
2018-04-17T13:28:00.306Z,34.64
2018-04-17T13:30:27.789Z,35.36
2018-04-17T13:32:55.309Z,34.24
2018-04-17T13:35:22.805Z,33.43
2018-04-17T13:37:50.338Z,33.66
2018-04-17T13:40:17.853Z,33.49
2018-04-17T13:42:45.353Z,33.65
2018-04-17T13:45:12.861Z,32.14
2018-04-17T13:47:40.377Z,33.57
2018-04-17T13:50:07.895Z,34.41
2018-04-17T13:52:35.385Z,33.65
2018-04-17T13:55:02.871Z,34.67
2018-04-17T13:57:30.377Z,33.65
2018-04-17T13:59:57.861Z,32.98
2018-04-17T14:02:25.405Z,32.71
2018-04-17T14:04:52.934Z,32.86
2018-04-17T14:07:20.425Z,33.40
2018-04-17T14:09:47.971Z,33.02
2018-04-17T14:12:15.461Z,33.50
2018-04-17T14:14:43.641Z,33.48
2018-04-17T14:17:11.182Z,33.24
2018-04-17T14:19:38.649Z,33.71
2018-04-17T14:22:06.161Z,33.41
2018-04-17T14:24:33.653Z,34.12
2018-04-17T14:27:01.307Z,33.04
2018-04-17T14:29:28.793Z,33.33
2018-04-17T14:31:56.310Z,32.87
2018-04-17T14:34:23.821Z,33.23
2018-04-17T14:36:51.325Z,31.77
2018-04-17T14:39:18.838Z,32.81
2018-04-17T14:41:46.321Z,32.67
2018-04-17T14:44:13.813Z,32.75
2018-04-17T14:46:41.319Z,33.00
2018-04-17T14:49:08.801Z,33.01
2018-04-17T14:51:36.612Z,31.73
2018-04-17T14:54:04.106Z,32.14
2018-04-17T14:56:31.589Z,32.03
2018-04-17T14:58:59.097Z,31.40
2018-04-17T15:01:26.637Z,31.12
2018-04-17T15:03:54.289Z,31.65
2018-04-17T15:06:21.770Z,32.99
2018-04-17T15:08:49.300Z,33.12
2018-04-17T15:11:16.789Z,32.17
2018-04-17T15:13:44.294Z,35.52
2018-04-17T15:16:12.045Z,35.92
2018-04-17T15:18:39.537Z,37.20
2018-04-17T15:21:07.017Z,39.04
2018-04-17T15:23:34.596Z,38.84
2018-04-17T15:26:02.073Z,38.63
2018-04-17T15:28:29.590Z,38.54
2018-04-17T15:30:57.097Z,38.86
2018-04-17T15:33:24.586Z,38.35
2018-04-17T15:35:52.117Z,38.39
2018-04-17T15:38:19.641Z,39.82
2018-04-17T15:40:47.347Z,40.64
2018-04-17T15:43:14.833Z,39.52
2018-04-17T15:45:42.398Z,40.29
2018-04-17T15:48:09.910Z,41.00
2018-04-17T15:50:37.393Z,42.02
2018-04-17T15:53:05.294Z,41.98
2018-04-17T15:55:32.780Z,42.65
2018-04-17T15:58:00.261Z,42.42
2018-04-17T16:00:27.765Z,42.22
2018-04-17T16:02:55.249Z,41.95
2018-04-17T16:05:22.777Z,42.22
2018-04-17T16:07:50.267Z,42.22
2018-04-17T16:10:17.757Z,42.39
2018-04-17T16:12:45.285Z,42.79
2018-04-17T16:15:12.775Z,43.11
2018-04-17T16:17:40.714Z,43.52
2018-04-17T16:20:08.250Z,41.91
2018-04-17T16:22:35.737Z,41.55
2018-04-17T16:25:03.258Z,41.56
2018-04-17T16:27:30.750Z,42.06
2018-04-17T16:29:58.692Z,41.19
2018-04-17T16:32:26.177Z,42.36
2018-04-17T16:34:53.665Z,42.67
2018-04-17T16:37:21.183Z,41.22
2018-04-17T16:39:48.687Z,42.46
2018-04-17T16:42:16.209Z,42.48
2018-04-17T16:44:43.689Z,43.52
2018-04-17T16:47:11.189Z,44.16
2018-04-17T16:49:38.708Z,44.40
2018-04-17T16:52:06.197Z,43.25
2018-04-17T16:54:33.705Z,43.34
2018-04-17T16:57:01.271Z,43.16
2018-04-17T16:59:28.756Z,44.57
2018-04-17T17:01:56.259Z,43.40
2018-04-17T17:04:23.789Z,44.17
2018-04-17T17:06:51.281Z,45.21
2018-04-17T17:09:18.805Z,46.40
2018-04-17T17:11:46.294Z,46.68
2018-04-17T17:14:13.787Z,47.63
2018-04-17T17:16:41.300Z,48.81
2018-04-17T17:19:08.785Z,49.53
2018-04-17T17:21:36.277Z,49.97
2018-04-17T17:24:03.809Z,50.54
2018-04-17T17:26:31.297Z,51.52
2018-04-17T17:28:58.778Z,52.69
2018-04-17T17:31:26.288Z,53.06
2018-04-17T17:33:53.773Z,51.89
2018-04-17T17:36:21.261Z,51.09
2018-04-17T17:38:48.790Z,51.90
2018-04-17T17:41:16.278Z,52.30
2018-04-17T17:43:43.777Z,52.49
2018-04-17T17:46:11.434Z,53.05
2018-04-17T17:48:38.940Z,53.60
2018-04-17T17:51:06.455Z,53.39
2018-04-17T17:53:34.000Z,53.86
2018-04-17T17:56:01.682Z,54.04
2018-04-17T17:58:29.201Z,54.40
2018-04-17T18:00:57.444Z,54.85
2018-04-17T18:03:24.934Z,55.13
2018-04-17T18:05:52.421Z,55.60
2018-04-17T18:08:20.247Z,55.64
2018-04-17T18:10:47.755Z,56.40
2018-04-17T18:13:16.045Z,56.28
2018-04-17T18:15:43.761Z,56.52
2018-04-17T18:18:11.281Z,56.45
2018-04-17T18:20:38.789Z,56.33
2018-04-17T18:23:06.355Z,56.67
2018-04-17T18:25:33.844Z,56.83
2018-04-17T18:28:01.330Z,56.92
2018-04-17T18:30:28.881Z,57.92
2018-04-17T18:32:57.885Z,58.10
2018-04-17T18:35:25.418Z,58.65
2018-04-17T18:37:52.947Z,59.55
2018-04-17T18:40:20.451Z,59.92
2018-04-17T18:42:48.792Z,59.97
2018-04-17T18:45:16.476Z,59.33
2018-04-17T18:47:43.984Z,58.99
2018-04-17T18:50:11.538Z,58.78
2018-04-17T18:52:39.985Z,59.96
2018-04-17T18:55:07.505Z,59.28
2018-04-17T18:57:35.027Z,59.70
2018-04-17T19:00:02.575Z,59.23
2018-04-17T19:02:30.095Z,59.70
2018-04-17T19:04:57.600Z,59.28
2018-04-17T19:07:26.014Z,59.41
2018-04-17T19:09:53.589Z,60.24
2018-04-17T19:12:21.631Z,60.89
2018-04-17T19:14:49.168Z,61.09
2018-04-17T19:17:16.749Z,61.88
2018-04-17T19:19:44.885Z,61.59
2018-04-17T19:22:13.385Z,62.00
2018-04-17T19:24:40.978Z,61.92
2018-04-17T19:27:08.916Z,61.63
2018-04-17T19:29:36.476Z,61.35
2018-04-17T19:32:03.983Z,60.92
2018-04-17T19:34:31.543Z,60.27
2018-04-17T19:36:59.110Z,59.65
2018-04-17T19:39:26.702Z,61.25
2018-04-17T19:41:54.222Z,61.97
2018-04-17T19:44:22.007Z,61.88
2018-04-17T19:46:49.591Z,62.67
2018-04-17T19:49:17.099Z,62.82
2018-04-17T19:51:45.130Z,63.25
2018-04-17T19:54:12.632Z,63.55
2018-04-17T19:56:40.130Z,64.63
2018-04-17T19:59:09.686Z,64.78
2018-04-17T20:01:37.201Z,65.23
2018-04-17T20:04:04.711Z,65.60
2018-04-17T20:06:32.237Z,66.08
2018-04-17T20:08:59.750Z,67.60
2018-04-17T20:11:27.346Z,69.12
2018-04-17T20:13:54.878Z,68.34
2018-04-17T20:16:22.366Z,69.41
2018-04-17T20:18:49.865Z,70.85
2018-04-17T20:21:17.530Z,70.55
2018-04-17T20:23:45.051Z,71.20
2018-04-17T20:26:12.572Z,71.10
2018-04-17T20:28:40.435Z,71.71
2018-04-17T20:31:07.942Z,72.01
2018-04-17T20:33:35.461Z,72.60
2018-04-17T20:36:02.996Z,72.80
2018-04-17T20:38:30.501Z,72.59
2018-04-17T20:40:58.001Z,72.50
2018-04-17T20:43:26.507Z,73.68
2018-04-17T20:45:54.001Z,73.62
2018-04-17T20:48:21.486Z,73.18
2018-04-17T20:50:49.397Z,73.05
2018-04-17T20:53:16.905Z,73.26
2018-04-17T20:55:44.394Z,73.92
2018-04-17T20:58:12.038Z,74.79
2018-04-17T21:00:39.546Z,74.62
2018-04-17T21:03:07.033Z,74.53
2018-04-17T21:05:34.830Z,74.33
2018-04-17T21:08:02.313Z,74.62
2018-04-17T21:10:29.817Z,75.62
2018-04-17T21:12:57.353Z,75.90
2018-04-17T21:15:24.850Z,75.48
2018-04-17T21:17:52.343Z,74.76
2018-04-17T21:20:20.069Z,74.81
2018-04-17T21:22:47.557Z,74.82
2018-04-17T21:25:15.050Z,75.86
2018-04-17T21:27:42.597Z,75.04
2018-04-17T21:30:10.085Z,75.56
2018-04-17T21:32:37.577Z,76.00
2018-04-17T21:35:05.294Z,77.23
2018-04-17T21:37:32.791Z,76.83
2018-04-17T21:40:00.299Z,77.39
2018-04-17T21:42:27.823Z,77.59
2018-04-17T21:44:55.317Z,77.82
2018-04-17T21:47:22.819Z,77.80
2018-04-17T21:49:50.341Z,78.37
2018-04-17T21:52:17.826Z,77.94
2018-04-17T21:54:45.309Z,78.48
2018-04-17T21:57:12.842Z,78.46
2018-04-17T21:59:40.348Z,78.96
2018-04-17T22:02:07.837Z,79.48
2018-04-17T22:04:35.349Z,78.95
2018-04-17T22:07:02.840Z,79.31
2018-04-17T22:09:30.693Z,79.27
2018-04-17T22:11:58.188Z,79.46
2018-04-17T22:14:25.674Z,79.64
2018-04-17T22:16:53.176Z,79.22
2018-04-17T22:19:20.693Z,79.29
2018-04-17T22:21:48.337Z,79.20
2018-04-17T22:24:15.833Z,80.45
2018-04-17T22:26:43.329Z,79.91
2018-04-17T22:29:10.853Z,79.59
2018-04-17T22:31:38.353Z,80.18
2018-04-17T22:34:06.110Z,79.71
2018-04-17T22:36:33.588Z,79.02
2018-04-17T22:39:01.077Z,79.38
2018-04-17T22:41:28.586Z,80.19
2018-04-17T22:43:56.089Z,79.68
2018-04-17T22:46:23.950Z,80.69
2018-04-17T22:48:51.465Z,81.43
2018-04-17T22:51:18.969Z,81.48
2018-04-17T22:53:46.522Z,81.84
2018-04-17T22:56:14.009Z,80.77
2018-04-17T22:58:41.666Z,81.06
2018-04-17T23:01:09.155Z,81.08
2018-04-17T23:03:36.641Z,81.20
2018-04-17T23:06:04.153Z,81.54
2018-04-17T23:08:31.641Z,81.31
2018-04-17T23:10:59.369Z,81.69
2018-04-17T23:13:26.858Z,81.81
2018-04-17T23:15:54.345Z,81.15
2018-04-17T23:18:21.853Z,81.96
2018-04-17T23:20:49.349Z,81.71
2018-04-17T23:23:17.026Z,81.33
2018-04-17T23:25:44.525Z,81.06
2018-04-17T23:28:12.022Z,81.28
2018-04-17T23:30:39.548Z,80.58
2018-04-17T23:33:07.041Z,80.87
2018-04-17T23:35:34.689Z,81.68
2018-04-17T23:38:02.165Z,81.09
2018-04-17T23:40:29.660Z,80.83
2018-04-17T23:42:57.169Z,81.11
2018-04-17T23:45:24.644Z,82.21
2018-04-17T23:47:52.341Z,83.17
2018-04-17T23:50:19.825Z,83.07
2018-04-17T23:52:47.333Z,83.05
2018-04-17T23:55:14.849Z,82.56
2018-04-17T23:57:42.337Z,84.09
